sensor_id;sensor_type;location;lat;lon;timestamp;P1;durP1;ratioP1;P2;durP2;ratioP2
12892;SDS011;6514;48.606;9.222;2022-12-18T00:02:14;45.13;;;19.90;;
12892;SDS011;6514;48.606;9.222;2022-12-18T00:04:41;48.33;;;21.30;;
12892;SDS011;6514;48.606;9.222;2022-12-18T00:07:10;46.57;;;21.67;;
12892;SDS011;6514;48.606;9.222;2022-12-18T00:09:37;39.93;;;21.03;;
12892;SDS011;6514;48.606;9.222;2022-12-18T00:12:04;45.33;;;21.30;;
12892;SDS011;6514;48.606;9.222;2022-12-18T00:14:31;43.20;;;21.37;;
12892;SDS011;6514;48.606;9.222;2022-12-18T00:16:58;42.50;;;21.67;;
12892;SDS011;6514;48.606;9.222;2022-12-18T00:19:25;44.83;;;20.60;;
12892;SDS011;6514;48.606;9.222;2022-12-18T00:21:53;47.87;;;21.33;;
12892;SDS011;6514;48.606;9.222;2022-12-18T00:24:21;44.10;;;21.30;;
12892;SDS011;6514;48.606;9.222;2022-12-18T00:26:48;44.20;;;20.30;;
12892;SDS011;6514;48.606;9.222;2022-12-18T00:29:15;47.63;;;21.03;;
12892;SDS011;6514;48.606;9.222;2022-12-18T00:31:42;40.73;;;19.77;;
12892;SDS011;6514;48.606;9.222;2022-12-18T00:34:09;47.43;;;21.03;;
12892;SDS011;6514;48.606;9.222;2022-12-18T00:36:37;43.87;;;19.97;;
12892;SDS011;6514;48.606;9.222;2022-12-18T00:39:05;44.20;;;21.10;;
12892;SDS011;6514;48.606;9.222;2022-12-18T00:41:33;42.87;;;20.50;;
12892;SDS011;6514;48.606;9.222;2022-12-18T00:44:18;50.57;;;22.53;;
12892;SDS011;6514;48.606;9.222;2022-12-18T00:46:45;41.73;;;20.00;;
12892;SDS011;6514;48.606;9.222;2022-12-18T00:49:13;39.87;;;19.93;;
12892;SDS011;6514;48.606;9.222;2022-12-18T00:51:41;44.93;;;21.07;;
12892;SDS011;6514;48.606;9.222;2022-12-18T00:54:08;40.97;;;18.37;;
12892;SDS011;6514;48.606;9.222;2022-12-18T00:56:37;42.20;;;18.27;;
12892;SDS011;6514;48.606;9.222;2022-12-18T00:59:05;84.20;;;34.60;;
12892;SDS011;6514;48.606;9.222;2022-12-18T01:01:32;66.07;;;28.93;;
12892;SDS011;6514;48.606;9.222;2022-12-18T01:03:59;58.80;;;26.13;;
12892;SDS011;6514;48.606;9.222;2022-12-18T01:06:27;52.93;;;25.07;;
12892;SDS011;6514;48.606;9.222;2022-12-18T01:08:54;52.20;;;25.17;;
12892;SDS011;6514;48.606;9.222;2022-12-18T01:11:21;46.53;;;22.00;;
12892;SDS011;6514;48.606;9.222;2022-12-18T01:13:50;41.63;;;19.07;;
12892;SDS011;6514;48.606;9.222;2022-12-18T01:16:17;37.23;;;18.40;;
12892;SDS011;6514;48.606;9.222;2022-12-18T01:18:45;37.70;;;18.33;;
12892;SDS011;6514;48.606;9.222;2022-12-18T01:21:12;34.30;;;16.67;;
12892;SDS011;6514;48.606;9.222;2022-12-18T01:23:40;33.80;;;16.97;;
12892;SDS011;6514;48.606;9.222;2022-12-18T01:26:07;36.03;;;16.17;;
12892;SDS011;6514;48.606;9.222;2022-12-18T01:28:35;30.60;;;15.90;;
12892;SDS011;6514;48.606;9.222;2022-12-18T01:31:10;37.67;;;17.93;;
12892;SDS011;6514;48.606;9.222;2022-12-18T01:33:42;34.77;;;17.50;;
12892;SDS011;6514;48.606;9.222;2022-12-18T01:36:14;40.23;;;18.53;;
12892;SDS011;6514;48.606;9.222;2022-12-18T01:38:41;35.03;;;17.73;;
12892;SDS011;6514;48.606;9.222;2022-12-18T01:41:08;35.40;;;18.00;;
12892;SDS011;6514;48.606;9.222;2022-12-18T01:43:45;43.10;;;18.77;;
12892;SDS011;6514;48.606;9.222;2022-12-18T01:46:16;38.17;;;17.77;;
12892;SDS011;6514;48.606;9.222;2022-12-18T01:48:44;39.17;;;17.37;;
12892;SDS011;6514;48.606;9.222;2022-12-18T01:51:12;35.10;;;17.20;;
12892;SDS011;6514;48.606;9.222;2022-12-18T01:53:40;38.83;;;18.20;;
12892;SDS011;6514;48.606;9.222;2022-12-18T01:56:11;35.83;;;18.23;;
12892;SDS011;6514;48.606;9.222;2022-12-18T01:58:40;36.20;;;16.63;;
12892;SDS011;6514;48.606;9.222;2022-12-18T02:01:12;34.13;;;17.37;;
12892;SDS011;6514;48.606;9.222;2022-12-18T02:03:41;37.40;;;17.53;;
12892;SDS011;6514;48.606;9.222;2022-12-18T02:06:11;35.23;;;18.13;;
12892;SDS011;6514;48.606;9.222;2022-12-18T02:08:45;32.53;;;16.37;;
12892;SDS011;6514;48.606;9.222;2022-12-18T02:11:18;32.07;;;16.83;;
12892;SDS011;6514;48.606;9.222;2022-12-18T02:13:54;31.40;;;17.87;;
12892;SDS011;6514;48.606;9.222;2022-12-18T02:16:33;36.67;;;17.67;;
12892;SDS011;6514;48.606;9.222;2022-12-18T02:19:13;34.57;;;16.43;;
12892;SDS011;6514;48.606;9.222;2022-12-18T02:21:52;36.43;;;17.23;;
12892;SDS011;6514;48.606;9.222;2022-12-18T02:24:28;36.67;;;16.60;;
12892;SDS011;6514;48.606;9.222;2022-12-18T02:27:01;31.10;;;16.60;;
12892;SDS011;6514;48.606;9.222;2022-12-18T02:29:31;37.33;;;17.97;;
12892;SDS011;6514;48.606;9.222;2022-12-18T02:32:03;31.37;;;17.10;;
12892;SDS011;6514;48.606;9.222;2022-12-18T02:34:35;34.97;;;17.23;;
12892;SDS011;6514;48.606;9.222;2022-12-18T02:37:05;33.93;;;16.47;;
12892;SDS011;6514;48.606;9.222;2022-12-18T02:39:35;33.60;;;16.60;;
12892;SDS011;6514;48.606;9.222;2022-12-18T02:42:05;28.73;;;15.90;;
12892;SDS011;6514;48.606;9.222;2022-12-18T02:44:33;29.50;;;15.73;;
12892;SDS011;6514;48.606;9.222;2022-12-18T02:47:00;32.77;;;15.90;;
12892;SDS011;6514;48.606;9.222;2022-12-18T02:49:31;31.20;;;17.33;;
12892;SDS011;6514;48.606;9.222;2022-12-18T02:52:05;36.93;;;17.57;;
12892;SDS011;6514;48.606;9.222;2022-12-18T02:54:51;36.90;;;17.23;;
12892;SDS011;6514;48.606;9.222;2022-12-18T02:57:27;35.57;;;16.43;;
12892;SDS011;6514;48.606;9.222;2022-12-18T03:00:02;31.03;;;15.90;;
12892;SDS011;6514;48.606;9.222;2022-12-18T03:02:35;33.57;;;16.93;;
12892;SDS011;6514;48.606;9.222;2022-12-18T03:05:07;31.03;;;15.43;;
12892;SDS011;6514;48.606;9.222;2022-12-18T03:07:42;32.53;;;16.23;;
12892;SDS011;6514;48.606;9.222;2022-12-18T03:10:13;29.73;;;14.90;;
12892;SDS011;6514;48.606;9.222;2022-12-18T03:12:47;29.43;;;15.47;;
12892;SDS011;6514;48.606;9.222;2022-12-18T03:15:19;33.47;;;16.37;;
12892;SDS011;6514;48.606;9.222;2022-12-18T03:17:51;33.50;;;15.83;;
12892;SDS011;6514;48.606;9.222;2022-12-18T03:20:21;32.47;;;16.03;;
12892;SDS011;6514;48.606;9.222;2022-12-18T03:22:53;29.37;;;15.10;;
12892;SDS011;6514;48.606;9.222;2022-12-18T03:25:26;30.77;;;15.57;;
12892;SDS011;6514;48.606;9.222;2022-12-18T03:27:56;29.03;;;14.83;;
12892;SDS011;6514;48.606;9.222;2022-12-18T03:30:26;29.20;;;15.50;;
12892;SDS011;6514;48.606;9.222;2022-12-18T03:32:56;36.20;;;16.33;;
12892;SDS011;6514;48.606;9.222;2022-12-18T03:35:29;30.10;;;14.80;;
12892;SDS011;6514;48.606;9.222;2022-12-18T03:37:57;26.87;;;13.33;;
12892;SDS011;6514;48.606;9.222;2022-12-18T03:40:26;28.27;;;14.17;;
12892;SDS011;6514;48.606;9.222;2022-12-18T03:43:03;26.90;;;13.63;;
12892;SDS011;6514;48.606;9.222;2022-12-18T03:45:37;27.10;;;14.13;;
12892;SDS011;6514;48.606;9.222;2022-12-18T03:48:10;32.70;;;15.33;;
12892;SDS011;6514;48.606;9.222;2022-12-18T03:50:43;26.00;;;13.60;;
12892;SDS011;6514;48.606;9.222;2022-12-18T03:53:17;30.00;;;14.70;;
12892;SDS011;6514;48.606;9.222;2022-12-18T03:55:50;28.97;;;14.27;;
12892;SDS011;6514;48.606;9.222;2022-12-18T03:58:20;28.47;;;15.17;;
12892;SDS011;6514;48.606;9.222;2022-12-18T04:00:49;26.93;;;14.80;;
12892;SDS011;6514;48.606;9.222;2022-12-18T04:03:19;26.20;;;14.63;;
12892;SDS011;6514;48.606;9.222;2022-12-18T04:05:47;30.37;;;15.13;;
12892;SDS011;6514;48.606;9.222;2022-12-18T04:08:16;33.00;;;16.13;;
12892;SDS011;6514;48.606;9.222;2022-12-18T04:10:44;31.57;;;14.70;;
12892;SDS011;6514;48.606;9.222;2022-12-18T04:13:10;27.23;;;14.13;;
12892;SDS011;6514;48.606;9.222;2022-12-18T04:15:39;26.87;;;15.03;;
12892;SDS011;6514;48.606;9.222;2022-12-18T04:18:07;29.00;;;14.23;;
12892;SDS011;6514;48.606;9.222;2022-12-18T04:20:34;28.37;;;14.80;;
12892;SDS011;6514;48.606;9.222;2022-12-18T04:23:01;29.33;;;15.17;;
12892;SDS011;6514;48.606;9.222;2022-12-18T04:25:28;33.43;;;15.63;;
12892;SDS011;6514;48.606;9.222;2022-12-18T04:27:55;25.13;;;16.37;;
12892;SDS011;6514;48.606;9.222;2022-12-18T04:30:22;29.33;;;15.10;;
12892;SDS011;6514;48.606;9.222;2022-12-18T04:32:50;28.80;;;14.97;;
12892;SDS011;6514;48.606;9.222;2022-12-18T04:35:16;29.00;;;14.10;;
12892;SDS011;6514;48.606;9.222;2022-12-18T04:37:43;28.53;;;15.07;;
12892;SDS011;6514;48.606;9.222;2022-12-18T04:40:11;26.20;;;14.30;;
12892;SDS011;6514;48.606;9.222;2022-12-18T04:42:38;26.20;;;14.87;;
12892;SDS011;6514;48.606;9.222;2022-12-18T04:45:06;29.67;;;15.93;;
12892;SDS011;6514;48.606;9.222;2022-12-18T04:47:33;29.70;;;15.83;;
12892;SDS011;6514;48.606;9.222;2022-12-18T04:50:02;33.97;;;17.03;;
12892;SDS011;6514;48.606;9.222;2022-12-18T04:52:32;28.13;;;15.90;;
12892;SDS011;6514;48.606;9.222;2022-12-18T04:54:59;31.27;;;15.00;;
12892;SDS011;6514;48.606;9.222;2022-12-18T04:57:25;33.33;;;14.67;;
12892;SDS011;6514;48.606;9.222;2022-12-18T04:59:52;29.57;;;16.27;;
12892;SDS011;6514;48.606;9.222;2022-12-18T05:02:19;26.20;;;14.20;;
12892;SDS011;6514;48.606;9.222;2022-12-18T05:04:46;26.83;;;14.20;;
12892;SDS011;6514;48.606;9.222;2022-12-18T05:07:14;31.50;;;16.30;;
12892;SDS011;6514;48.606;9.222;2022-12-18T05:09:41;31.97;;;16.57;;
12892;SDS011;6514;48.606;9.222;2022-12-18T05:12:08;28.53;;;15.07;;
12892;SDS011;6514;48.606;9.222;2022-12-18T05:14:35;30.10;;;15.13;;
12892;SDS011;6514;48.606;9.222;2022-12-18T05:17:01;33.17;;;16.57;;
12892;SDS011;6514;48.606;9.222;2022-12-18T05:19:28;32.10;;;17.17;;
12892;SDS011;6514;48.606;9.222;2022-12-18T05:21:55;31.17;;;17.13;;
12892;SDS011;6514;48.606;9.222;2022-12-18T05:24:23;37.33;;;18.17;;
12892;SDS011;6514;48.606;9.222;2022-12-18T05:26:50;31.57;;;16.67;;
12892;SDS011;6514;48.606;9.222;2022-12-18T05:29:17;26.97;;;15.10;;
12892;SDS011;6514;48.606;9.222;2022-12-18T05:31:44;27.27;;;14.93;;
12892;SDS011;6514;48.606;9.222;2022-12-18T05:34:11;27.60;;;14.40;;
12892;SDS011;6514;48.606;9.222;2022-12-18T05:36:38;30.00;;;15.70;;
12892;SDS011;6514;48.606;9.222;2022-12-18T05:39:05;28.43;;;14.77;;
12892;SDS011;6514;48.606;9.222;2022-12-18T05:41:33;27.00;;;15.80;;
12892;SDS011;6514;48.606;9.222;2022-12-18T05:44:00;32.93;;;16.17;;
12892;SDS011;6514;48.606;9.222;2022-12-18T05:46:27;25.37;;;14.23;;
12892;SDS011;6514;48.606;9.222;2022-12-18T05:48:54;29.47;;;13.97;;
12892;SDS011;6514;48.606;9.222;2022-12-18T05:51:21;25.67;;;13.33;;
12892;SDS011;6514;48.606;9.222;2022-12-18T05:53:48;25.93;;;14.23;;
12892;SDS011;6514;48.606;9.222;2022-12-18T05:56:16;25.03;;;13.70;;
12892;SDS011;6514;48.606;9.222;2022-12-18T05:58:46;26.40;;;13.77;;
12892;SDS011;6514;48.606;9.222;2022-12-18T06:01:14;30.43;;;16.93;;
12892;SDS011;6514;48.606;9.222;2022-12-18T06:03:43;39.73;;;19.00;;
12892;SDS011;6514;48.606;9.222;2022-12-18T06:06:13;38.07;;;19.17;;
12892;SDS011;6514;48.606;9.222;2022-12-18T06:08:41;42.57;;;20.63;;
12892;SDS011;6514;48.606;9.222;2022-12-18T06:11:08;41.43;;;18.83;;
12892;SDS011;6514;48.606;9.222;2022-12-18T06:13:35;35.43;;;18.07;;
12892;SDS011;6514;48.606;9.222;2022-12-18T06:16:04;36.07;;;17.33;;
12892;SDS011;6514;48.606;9.222;2022-12-18T06:18:31;34.73;;;16.70;;
12892;SDS011;6514;48.606;9.222;2022-12-18T06:20:58;34.43;;;17.57;;
12892;SDS011;6514;48.606;9.222;2022-12-18T06:23:26;34.10;;;16.90;;
12892;SDS011;6514;48.606;9.222;2022-12-18T06:25:53;32.00;;;17.47;;
12892;SDS011;6514;48.606;9.222;2022-12-18T06:28:20;31.97;;;16.13;;
12892;SDS011;6514;48.606;9.222;2022-12-18T06:30:47;30.63;;;15.43;;
12892;SDS011;6514;48.606;9.222;2022-12-18T06:33:16;25.60;;;13.47;;
12892;SDS011;6514;48.606;9.222;2022-12-18T06:35:43;28.47;;;14.67;;
12892;SDS011;6514;48.606;9.222;2022-12-18T06:38:10;28.40;;;13.30;;
12892;SDS011;6514;48.606;9.222;2022-12-18T06:40:37;25.73;;;14.20;;
12892;SDS011;6514;48.606;9.222;2022-12-18T06:43:05;22.33;;;13.17;;
12892;SDS011;6514;48.606;9.222;2022-12-18T06:45:32;23.80;;;13.40;;
12892;SDS011;6514;48.606;9.222;2022-12-18T06:47:59;22.33;;;12.70;;
12892;SDS011;6514;48.606;9.222;2022-12-18T06:50:28;21.67;;;11.93;;
12892;SDS011;6514;48.606;9.222;2022-12-18T06:52:54;23.40;;;12.83;;
12892;SDS011;6514;48.606;9.222;2022-12-18T06:55:21;28.47;;;14.73;;
12892;SDS011;6514;48.606;9.222;2022-12-18T06:57:48;29.30;;;15.50;;
12892;SDS011;6514;48.606;9.222;2022-12-18T07:00:15;33.13;;;15.80;;
12892;SDS011;6514;48.606;9.222;2022-12-18T07:02:43;28.17;;;15.17;;
12892;SDS011;6514;48.606;9.222;2022-12-18T07:05:10;32.53;;;16.83;;
12892;SDS011;6514;48.606;9.222;2022-12-18T07:07:38;34.07;;;17.30;;
12892;SDS011;6514;48.606;9.222;2022-12-18T07:10:05;37.27;;;16.47;;
12892;SDS011;6514;48.606;9.222;2022-12-18T07:12:32;38.47;;;18.00;;
12892;SDS011;6514;48.606;9.222;2022-12-18T07:14:59;34.97;;;17.50;;
12892;SDS011;6514;48.606;9.222;2022-12-18T07:17:26;34.63;;;17.23;;
12892;SDS011;6514;48.606;9.222;2022-12-18T07:19:53;35.93;;;18.77;;
12892;SDS011;6514;48.606;9.222;2022-12-18T07:22:20;33.10;;;17.50;;
12892;SDS011;6514;48.606;9.222;2022-12-18T07:24:51;37.10;;;17.67;;
12892;SDS011;6514;48.606;9.222;2022-12-18T07:27:18;33.27;;;17.50;;
12892;SDS011;6514;48.606;9.222;2022-12-18T07:29:45;37.63;;;17.80;;
12892;SDS011;6514;48.606;9.222;2022-12-18T07:32:12;33.43;;;16.30;;
12892;SDS011;6514;48.606;9.222;2022-12-18T07:34:39;33.13;;;16.50;;
12892;SDS011;6514;48.606;9.222;2022-12-18T07:37:06;30.37;;;15.93;;
12892;SDS011;6514;48.606;9.222;2022-12-18T07:39:33;46.07;;;20.73;;
12892;SDS011;6514;48.606;9.222;2022-12-18T07:42:01;37.67;;;19.30;;
12892;SDS011;6514;48.606;9.222;2022-12-18T07:44:45;37.13;;;19.40;;
12892;SDS011;6514;48.606;9.222;2022-12-18T07:47:12;37.23;;;18.27;;
12892;SDS011;6514;48.606;9.222;2022-12-18T07:49:38;36.17;;;18.40;;
12892;SDS011;6514;48.606;9.222;2022-12-18T07:52:05;34.17;;;18.50;;
12892;SDS011;6514;48.606;9.222;2022-12-18T07:54:33;36.27;;;18.77;;
12892;SDS011;6514;48.606;9.222;2022-12-18T07:57:03;37.47;;;18.73;;
12892;SDS011;6514;48.606;9.222;2022-12-18T07:59:30;38.83;;;20.30;;
12892;SDS011;6514;48.606;9.222;2022-12-18T08:01:57;39.23;;;19.03;;
12892;SDS011;6514;48.606;9.222;2022-12-18T08:04:24;41.87;;;20.13;;
12892;SDS011;6514;48.606;9.222;2022-12-18T08:06:51;35.50;;;19.43;;
12892;SDS011;6514;48.606;9.222;2022-12-18T08:09:18;42.33;;;20.93;;
12892;SDS011;6514;48.606;9.222;2022-12-18T08:11:45;38.67;;;21.27;;
12892;SDS011;6514;48.606;9.222;2022-12-18T08:14:13;42.47;;;22.10;;
12892;SDS011;6514;48.606;9.222;2022-12-18T08:16:40;42.73;;;22.43;;
12892;SDS011;6514;48.606;9.222;2022-12-18T08:19:10;41.60;;;23.63;;
12892;SDS011;6514;48.606;9.222;2022-12-18T08:21:37;39.07;;;22.23;;
12892;SDS011;6514;48.606;9.222;2022-12-18T08:24:08;41.30;;;24.70;;
12892;SDS011;6514;48.606;9.222;2022-12-18T08:26:35;42.50;;;23.33;;
12892;SDS011;6514;48.606;9.222;2022-12-18T08:29:02;43.73;;;23.97;;
12892;SDS011;6514;48.606;9.222;2022-12-18T08:31:30;34.33;;;21.13;;
12892;SDS011;6514;48.606;9.222;2022-12-18T08:33:58;34.40;;;20.63;;
12892;SDS011;6514;48.606;9.222;2022-12-18T08:36:25;31.70;;;18.27;;
12892;SDS011;6514;48.606;9.222;2022-12-18T08:38:52;30.83;;;17.73;;
12892;SDS011;6514;48.606;9.222;2022-12-18T08:41:19;27.43;;;16.90;;
12892;SDS011;6514;48.606;9.222;2022-12-18T08:43:47;36.57;;;22.47;;
12892;SDS011;6514;48.606;9.222;2022-12-18T08:46:34;41.87;;;22.80;;
12892;SDS011;6514;48.606;9.222;2022-12-18T08:49:03;35.93;;;21.80;;
12892;SDS011;6514;48.606;9.222;2022-12-18T08:51:31;36.63;;;21.33;;
12892;SDS011;6514;48.606;9.222;2022-12-18T08:53:58;38.37;;;22.47;;
12892;SDS011;6514;48.606;9.222;2022-12-18T08:56:25;35.63;;;22.00;;
12892;SDS011;6514;48.606;9.222;2022-12-18T08:58:52;40.43;;;24.80;;
12892;SDS011;6514;48.606;9.222;2022-12-18T09:01:19;42.27;;;27.43;;
12892;SDS011;6514;48.606;9.222;2022-12-18T09:03:48;39.53;;;27.50;;
12892;SDS011;6514;48.606;9.222;2022-12-18T09:06:16;42.87;;;27.03;;
12892;SDS011;6514;48.606;9.222;2022-12-18T09:08:44;36.43;;;24.90;;
12892;SDS011;6514;48.606;9.222;2022-12-18T09:11:12;38.10;;;24.17;;
12892;SDS011;6514;48.606;9.222;2022-12-18T09:13:40;37.17;;;24.43;;
12892;SDS011;6514;48.606;9.222;2022-12-18T09:16:07;38.00;;;25.83;;
12892;SDS011;6514;48.606;9.222;2022-12-18T09:18:34;42.30;;;28.80;;
12892;SDS011;6514;48.606;9.222;2022-12-18T09:21:08;38.87;;;27.47;;
12892;SDS011;6514;48.606;9.222;2022-12-18T09:23:36;37.83;;;27.80;;
12892;SDS011;6514;48.606;9.222;2022-12-18T09:26:03;36.00;;;25.70;;
12892;SDS011;6514;48.606;9.222;2022-12-18T09:28:30;31.37;;;24.00;;
12892;SDS011;6514;48.606;9.222;2022-12-18T09:30:57;33.33;;;24.90;;
12892;SDS011;6514;48.606;9.222;2022-12-18T09:33:24;41.67;;;29.43;;
12892;SDS011;6514;48.606;9.222;2022-12-18T09:35:51;50.07;;;32.13;;
12892;SDS011;6514;48.606;9.222;2022-12-18T09:38:19;41.97;;;28.03;;
12892;SDS011;6514;48.606;9.222;2022-12-18T09:40:48;35.80;;;24.27;;
12892;SDS011;6514;48.606;9.222;2022-12-18T09:43:18;31.47;;;21.70;;
12892;SDS011;6514;48.606;9.222;2022-12-18T09:45:48;34.40;;;22.00;;
12892;SDS011;6514;48.606;9.222;2022-12-18T09:48:19;30.83;;;20.80;;
12892;SDS011;6514;48.606;9.222;2022-12-18T09:50:49;31.97;;;19.70;;
12892;SDS011;6514;48.606;9.222;2022-12-18T09:53:20;32.90;;;20.20;;
12892;SDS011;6514;48.606;9.222;2022-12-18T09:55:51;32.60;;;20.23;;
12892;SDS011;6514;48.606;9.222;2022-12-18T09:58:20;29.43;;;20.13;;
12892;SDS011;6514;48.606;9.222;2022-12-18T10:00:52;33.30;;;20.57;;
12892;SDS011;6514;48.606;9.222;2022-12-18T10:03:20;35.30;;;22.53;;
12892;SDS011;6514;48.606;9.222;2022-12-18T10:05:51;36.63;;;23.43;;
12892;SDS011;6514;48.606;9.222;2022-12-18T10:08:27;32.10;;;19.83;;
12892;SDS011;6514;48.606;9.222;2022-12-18T10:11:07;33.43;;;19.83;;
12892;SDS011;6514;48.606;9.222;2022-12-18T10:13:57;31.73;;;19.80;;
12892;SDS011;6514;48.606;9.222;2022-12-18T10:16:32;31.00;;;19.87;;
12892;SDS011;6514;48.606;9.222;2022-12-18T10:19:16;33.83;;;19.87;;
12892;SDS011;6514;48.606;9.222;2022-12-18T10:21:51;32.73;;;20.63;;
12892;SDS011;6514;48.606;9.222;2022-12-18T10:24:26;33.80;;;20.90;;
12892;SDS011;6514;48.606;9.222;2022-12-18T10:26:59;31.87;;;19.97;;
12892;SDS011;6514;48.606;9.222;2022-12-18T10:29:37;34.57;;;20.60;;
12892;SDS011;6514;48.606;9.222;2022-12-18T10:32:04;31.40;;;20.33;;
12892;SDS011;6514;48.606;9.222;2022-12-18T10:34:33;30.40;;;20.13;;
12892;SDS011;6514;48.606;9.222;2022-12-18T10:37:00;34.90;;;21.10;;
12892;SDS011;6514;48.606;9.222;2022-12-18T10:39:31;32.07;;;20.17;;
12892;SDS011;6514;48.606;9.222;2022-12-18T10:42:09;29.63;;;19.63;;
12892;SDS011;6514;48.606;9.222;2022-12-18T10:44:42;31.60;;;20.57;;
12892;SDS011;6514;48.606;9.222;2022-12-18T10:47:11;31.13;;;20.97;;
12892;SDS011;6514;48.606;9.222;2022-12-18T10:49:42;36.07;;;22.40;;
12892;SDS011;6514;48.606;9.222;2022-12-18T10:52:15;33.83;;;21.17;;
12892;SDS011;6514;48.606;9.222;2022-12-18T10:54:50;35.47;;;21.30;;
12892;SDS011;6514;48.606;9.222;2022-12-18T11:00:19;34.07;;;21.27;;
12892;SDS011;6514;48.606;9.222;2022-12-18T11:02:50;37.70;;;22.23;;
12892;SDS011;6514;48.606;9.222;2022-12-18T11:05:25;37.73;;;22.13;;
12892;SDS011;6514;48.606;9.222;2022-12-18T11:07:54;42.63;;;24.23;;
12892;SDS011;6514;48.606;9.222;2022-12-18T11:10:25;36.90;;;22.07;;
12892;SDS011;6514;48.606;9.222;2022-12-18T11:12:56;38.27;;;24.57;;
12892;SDS011;6514;48.606;9.222;2022-12-18T11:15:36;40.10;;;24.20;;
12892;SDS011;6514;48.606;9.222;2022-12-18T11:18:14;38.40;;;23.80;;
12892;SDS011;6514;48.606;9.222;2022-12-18T11:20:56;37.93;;;23.07;;
12892;SDS011;6514;48.606;9.222;2022-12-18T11:23:25;34.03;;;21.37;;
12892;SDS011;6514;48.606;9.222;2022-12-18T11:25:55;32.07;;;21.53;;
12892;SDS011;6514;48.606;9.222;2022-12-18T11:31:21;41.10;;;24.87;;
12892;SDS011;6514;48.606;9.222;2022-12-18T11:33:52;32.70;;;21.83;;
12892;SDS011;6514;48.606;9.222;2022-12-18T11:36:33;33.17;;;20.43;;
12892;SDS011;6514;48.606;9.222;2022-12-18T11:39:07;34.50;;;19.57;;
12892;SDS011;6514;48.606;9.222;2022-12-18T11:41:43;30.67;;;19.93;;
12892;SDS011;6514;48.606;9.222;2022-12-18T11:44:35;31.80;;;19.43;;
12892;SDS011;6514;48.606;9.222;2022-12-18T11:47:09;30.97;;;18.57;;
12892;SDS011;6514;48.606;9.222;2022-12-18T11:49:45;29.47;;;18.90;;
12892;SDS011;6514;48.606;9.222;2022-12-18T11:52:16;29.07;;;18.50;;
12892;SDS011;6514;48.606;9.222;2022-12-18T11:54:53;28.83;;;17.43;;
12892;SDS011;6514;48.606;9.222;2022-12-18T11:57:28;31.57;;;18.37;;
12892;SDS011;6514;48.606;9.222;2022-12-18T12:00:09;26.40;;;16.93;;
12892;SDS011;6514;48.606;9.222;2022-12-18T12:02:47;30.37;;;17.90;;
12892;SDS011;6514;48.606;9.222;2022-12-18T12:05:41;28.47;;;17.27;;
12892;SDS011;6514;48.606;9.222;2022-12-18T12:08:17;32.30;;;19.30;;
12892;SDS011;6514;48.606;9.222;2022-12-18T12:10:56;30.53;;;19.17;;
12892;SDS011;6514;48.606;9.222;2022-12-18T12:13:35;28.93;;;19.30;;
12892;SDS011;6514;48.606;9.222;2022-12-18T12:16:13;31.33;;;20.40;;
12892;SDS011;6514;48.606;9.222;2022-12-18T12:18:49;30.53;;;19.17;;
12892;SDS011;6514;48.606;9.222;2022-12-18T12:21:28;33.03;;;20.03;;
12892;SDS011;6514;48.606;9.222;2022-12-18T12:24:04;30.73;;;19.77;;
12892;SDS011;6514;48.606;9.222;2022-12-18T12:26:42;33.13;;;20.93;;
12892;SDS011;6514;48.606;9.222;2022-12-18T12:29:24;31.53;;;20.53;;
12892;SDS011;6514;48.606;9.222;2022-12-18T12:32:05;31.17;;;19.47;;
12892;SDS011;6514;48.606;9.222;2022-12-18T12:34:41;32.77;;;19.17;;
12892;SDS011;6514;48.606;9.222;2022-12-18T12:37:19;32.60;;;20.03;;
12892;SDS011;6514;48.606;9.222;2022-12-18T12:39:52;32.10;;;19.57;;
12892;SDS011;6514;48.606;9.222;2022-12-18T12:42:23;33.20;;;21.00;;
12892;SDS011;6514;48.606;9.222;2022-12-18T12:45:14;33.37;;;20.97;;
12892;SDS011;6514;48.606;9.222;2022-12-18T12:47:44;34.00;;;21.07;;
12892;SDS011;6514;48.606;9.222;2022-12-18T12:50:16;35.57;;;22.07;;
12892;SDS011;6514;48.606;9.222;2022-12-18T12:52:46;40.10;;;23.97;;
12892;SDS011;6514;48.606;9.222;2022-12-18T12:55:21;33.83;;;22.50;;
12892;SDS011;6514;48.606;9.222;2022-12-18T12:57:53;37.97;;;23.07;;
12892;SDS011;6514;48.606;9.222;2022-12-18T13:00:27;39.00;;;23.70;;
12892;SDS011;6514;48.606;9.222;2022-12-18T13:03:03;34.53;;;22.07;;
12892;SDS011;6514;48.606;9.222;2022-12-18T13:05:38;38.40;;;21.97;;
12892;SDS011;6514;48.606;9.222;2022-12-18T13:08:22;36.47;;;20.67;;
12892;SDS011;6514;48.606;9.222;2022-12-18T13:10:51;34.23;;;22.10;;
12892;SDS011;6514;48.606;9.222;2022-12-18T13:13:49;34.77;;;20.50;;
12892;SDS011;6514;48.606;9.222;2022-12-18T13:16:19;36.70;;;20.53;;
12892;SDS011;6514;48.606;9.222;2022-12-18T13:18:48;29.87;;;19.03;;
12892;SDS011;6514;48.606;9.222;2022-12-18T13:21:18;30.90;;;18.57;;
12892;SDS011;6514;48.606;9.222;2022-12-18T13:23:49;29.23;;;17.93;;
12892;SDS011;6514;48.606;9.222;2022-12-18T13:28:59;32.70;;;18.63;;
12892;SDS011;6514;48.606;9.222;2022-12-18T13:34:26;28.07;;;16.63;;
12892;SDS011;6514;48.606;9.222;2022-12-18T13:36:55;30.57;;;18.73;;
12892;SDS011;6514;48.606;9.222;2022-12-18T13:39:42;30.80;;;18.87;;
12892;SDS011;6514;48.606;9.222;2022-12-18T13:45:41;32.00;;;19.33;;
12892;SDS011;6514;48.606;9.222;2022-12-18T13:48:18;28.17;;;17.67;;
12892;SDS011;6514;48.606;9.222;2022-12-18T13:50:52;31.23;;;17.57;;
12892;SDS011;6514;48.606;9.222;2022-12-18T13:53:30;32.30;;;18.63;;
12892;SDS011;6514;48.606;9.222;2022-12-18T13:55:59;29.33;;;18.30;;
12892;SDS011;6514;48.606;9.222;2022-12-18T13:58:27;27.53;;;17.60;;
12892;SDS011;6514;48.606;9.222;2022-12-18T14:00:54;27.10;;;17.23;;
12892;SDS011;6514;48.606;9.222;2022-12-18T14:03:26;27.10;;;16.73;;
12892;SDS011;6514;48.606;9.222;2022-12-18T14:05:55;29.80;;;18.90;;
12892;SDS011;6514;48.606;9.222;2022-12-18T14:08:25;31.23;;;18.70;;
12892;SDS011;6514;48.606;9.222;2022-12-18T14:10:58;34.50;;;20.33;;
12892;SDS011;6514;48.606;9.222;2022-12-18T14:13:26;31.90;;;18.37;;
12892;SDS011;6514;48.606;9.222;2022-12-18T14:15:56;31.57;;;20.30;;
12892;SDS011;6514;48.606;9.222;2022-12-18T14:18:29;34.43;;;22.13;;
12892;SDS011;6514;48.606;9.222;2022-12-18T14:20:59;36.67;;;21.87;;
12892;SDS011;6514;48.606;9.222;2022-12-18T14:23:30;36.00;;;20.77;;
12892;SDS011;6514;48.606;9.222;2022-12-18T14:25:59;41.90;;;25.17;;
12892;SDS011;6514;48.606;9.222;2022-12-18T14:28:26;35.10;;;21.20;;
12892;SDS011;6514;48.606;9.222;2022-12-18T14:30:54;37.10;;;22.07;;
12892;SDS011;6514;48.606;9.222;2022-12-18T14:33:21;39.83;;;23.07;;
12892;SDS011;6514;48.606;9.222;2022-12-18T14:35:55;37.20;;;21.57;;
12892;SDS011;6514;48.606;9.222;2022-12-18T14:38:25;36.27;;;21.67;;
12892;SDS011;6514;48.606;9.222;2022-12-18T14:40:54;38.20;;;22.10;;
12892;SDS011;6514;48.606;9.222;2022-12-18T14:43:28;40.57;;;23.30;;
12892;SDS011;6514;48.606;9.222;2022-12-18T14:45:57;40.73;;;23.87;;
12892;SDS011;6514;48.606;9.222;2022-12-18T14:48:32;43.47;;;25.30;;
12892;SDS011;6514;48.606;9.222;2022-12-18T14:51:04;40.43;;;24.27;;
12892;SDS011;6514;48.606;9.222;2022-12-18T14:53:34;38.13;;;24.50;;
12892;SDS011;6514;48.606;9.222;2022-12-18T14:56:13;40.10;;;24.53;;
12892;SDS011;6514;48.606;9.222;2022-12-18T14:58:45;36.60;;;23.10;;
12892;SDS011;6514;48.606;9.222;2022-12-18T15:01:20;42.87;;;26.40;;
12892;SDS011;6514;48.606;9.222;2022-12-18T15:03:50;40.93;;;25.33;;
12892;SDS011;6514;48.606;9.222;2022-12-18T15:06:23;42.87;;;25.47;;
12892;SDS011;6514;48.606;9.222;2022-12-18T15:08:53;48.50;;;26.67;;